createdAt,value
2023-02-23T00:01:29.435Z,11.78
2023-02-23T00:03:58.628Z,12.28
2023-02-23T00:08:57.626Z,13.65
2023-02-23T00:13:52.052Z,15.65
2023-02-23T00:18:56.446Z,17.62
2023-02-23T00:21:29.482Z,17.45
2023-02-23T00:24:07.577Z,18.12
2023-02-23T00:26:38.501Z,15.88
2023-02-23T00:29:15.575Z,15.10
2023-02-23T00:34:12.043Z,11.60
2023-02-23T00:39:24.320Z,12.45
2023-02-23T00:41:53.347Z,11.05
2023-02-23T00:44:23.564Z,11.30
2023-02-23T00:46:52.524Z,11.53
2023-02-23T00:49:22.971Z,11.38
2023-02-23T00:51:51.682Z,10.08
2023-02-23T00:54:20.974Z,10.60
2023-02-23T00:56:49.627Z,11.00
2023-02-23T00:59:18.285Z,12.28
2023-02-23T01:01:46.328Z,12.68
2023-02-23T01:04:14.339Z,12.63
2023-02-23T01:06:42.813Z,13.22
2023-02-23T01:09:16.367Z,12.45
2023-02-23T01:11:45.975Z,10.30
2023-02-23T01:14:12.717Z,10.72
2023-02-23T01:16:41.713Z,10.82
2023-02-23T01:19:10.827Z,9.83
2023-02-23T01:24:08.751Z,9.38
2023-02-23T01:26:40.620Z,10.08
2023-02-23T01:29:12.367Z,8.50
2023-02-23T01:31:43.873Z,8.85
2023-02-23T01:34:14.071Z,8.93
2023-02-23T01:36:43.884Z,8.25
2023-02-23T01:39:16.704Z,7.87
2023-02-23T01:41:45.242Z,7.53
2023-02-23T01:46:43.238Z,7.72
2023-02-23T01:54:21.479Z,7.42
2023-02-23T01:59:18.127Z,7.90
2023-02-23T02:04:16.088Z,8.85
2023-02-23T02:06:47.115Z,8.98
2023-02-23T02:09:17.317Z,9.10
2023-02-23T02:11:46.096Z,9.00
2023-02-23T02:14:27.178Z,8.30
2023-02-23T02:17:10.277Z,8.70
2023-02-23T02:20:32.705Z,8.45
2023-02-23T02:23:43.733Z,7.67
2023-02-23T02:26:29.084Z,9.10
2023-02-23T02:29:34.155Z,8.63
2023-02-23T02:32:22.220Z,8.68
2023-02-23T02:35:10.150Z,9.23
2023-02-23T02:38:07.290Z,9.95
2023-02-23T02:40:55.356Z,9.05
2023-02-23T02:43:46.541Z,9.00
2023-02-23T02:46:24.897Z,9.43
2023-02-23T02:49:21.023Z,9.30
2023-02-23T02:51:57.015Z,8.30
2023-02-23T02:54:33.536Z,9.30
2023-02-23T02:57:04.591Z,8.53
2023-02-23T03:00:04.212Z,8.55
2023-02-23T03:02:54.957Z,8.35
2023-02-23T03:11:31.042Z,10.10
2023-02-23T03:14:53.632Z,10.68
2023-02-23T03:18:03.219Z,10.03
2023-02-23T03:20:57.667Z,10.40
2023-02-23T03:24:06.749Z,10.10
2023-02-23T03:27:11.464Z,8.65
2023-02-23T03:32:33.495Z,7.30
2023-02-23T03:35:27.827Z,8.18
2023-02-23T03:38:22.805Z,6.37
2023-02-23T03:41:11.901Z,7.05
2023-02-23T03:43:59.514Z,6.50
2023-02-23T03:46:48.871Z,6.62
2023-02-23T03:49:38.757Z,7.53
2023-02-23T03:52:33.374Z,6.95
2023-02-23T03:55:25.047Z,7.05
2023-02-23T03:58:14.871Z,7.12
2023-02-23T04:03:35.716Z,7.35
2023-02-23T04:06:26.353Z,6.00
2023-02-23T04:11:46.678Z,6.15
2023-02-23T04:14:34.850Z,6.12
2023-02-23T04:17:04.763Z,5.70
2023-02-23T04:19:32.700Z,6.15
2023-02-23T04:24:26.439Z,6.20
2023-02-23T04:26:54.297Z,5.78
2023-02-23T04:29:21.964Z,5.80
2023-02-23T04:31:49.873Z,5.40
2023-02-23T04:34:17.791Z,5.45
2023-02-23T04:36:45.470Z,5.87
2023-02-23T04:39:13.041Z,5.35
2023-02-23T04:41:40.953Z,6.75
2023-02-23T04:44:08.404Z,9.73
2023-02-23T04:46:36.088Z,8.73
2023-02-23T04:49:03.788Z,14.35
2023-02-23T04:51:33.263Z,19.25
2023-02-23T04:54:01.897Z,26.30
2023-02-23T04:56:29.895Z,23.07
2023-02-23T04:58:58.156Z,22.15
2023-02-23T05:01:26.740Z,20.37
2023-02-23T05:03:55.271Z,22.55
2023-02-23T05:06:22.948Z,22.40
2023-02-23T05:08:50.591Z,27.02
2023-02-23T05:11:19.932Z,29.82
2023-02-23T05:13:47.513Z,34.03
2023-02-23T05:16:15.313Z,34.15
2023-02-23T05:21:11.110Z,30.37
2023-02-23T05:26:08.951Z,31.33
2023-02-23T05:31:03.992Z,24.40
2023-02-23T05:36:02.422Z,25.60
2023-02-23T05:40:55.987Z,18.90
2023-02-23T05:43:23.993Z,15.83
2023-02-23T05:45:51.852Z,16.00
2023-02-23T05:48:19.899Z,18.70
2023-02-23T05:50:47.506Z,17.80
2023-02-23T05:53:15.669Z,17.23
2023-02-23T05:55:43.642Z,13.98
2023-02-23T05:58:17.177Z,13.95
2023-02-23T06:00:46.697Z,13.15
2023-02-23T06:03:15.528Z,13.55
2023-02-23T06:05:43.247Z,13.48
2023-02-23T06:08:11.002Z,12.05
2023-02-23T06:13:04.673Z,12.68
2023-02-23T06:17:58.841Z,10.72
2023-02-23T06:20:26.758Z,10.90
2023-02-23T06:22:54.468Z,9.78
2023-02-23T06:25:22.251Z,10.43
2023-02-23T06:27:50.159Z,10.55
2023-02-23T06:30:19.395Z,10.40
2023-02-23T06:32:47.876Z,10.15
2023-02-23T06:35:18.335Z,10.00
2023-02-23T06:37:46.061Z,10.13
2023-02-23T06:40:13.878Z,10.58
2023-02-23T06:42:41.670Z,11.28
2023-02-23T06:45:10.628Z,11.03
2023-02-23T06:47:38.798Z,11.63
2023-02-23T06:50:09.061Z,10.60
2023-02-23T06:52:37.034Z,11.93
2023-02-23T06:55:06.987Z,10.95
2023-02-23T06:57:34.678Z,10.80
2023-02-23T07:00:05.127Z,11.10
2023-02-23T07:02:32.060Z,10.95
2023-02-23T07:04:59.800Z,11.90
2023-02-23T07:07:28.139Z,11.20
2023-02-23T07:09:55.888Z,12.90
2023-02-23T07:12:23.494Z,11.78
2023-02-23T07:14:51.251Z,10.25
2023-02-23T07:19:47.092Z,11.75
2023-02-23T07:24:41.221Z,12.75
2023-02-23T07:27:09.154Z,13.98
2023-02-23T07:29:37.095Z,14.30
2023-02-23T07:32:05.486Z,15.55
2023-02-23T07:34:33.036Z,13.70
2023-02-23T07:37:00.749Z,15.08
2023-02-23T07:39:28.528Z,14.28
2023-02-23T07:41:56.062Z,14.40
2023-02-23T07:46:52.232Z,12.45
2023-02-23T07:51:46.447Z,10.93
2023-02-23T07:54:15.156Z,10.35
2023-02-23T07:56:42.284Z,11.35
2023-02-23T07:59:10.046Z,10.43
2023-02-23T08:01:38.300Z,10.68
2023-02-23T08:04:06.422Z,10.08
2023-02-23T08:06:33.960Z,12.05
2023-02-23T08:09:04.165Z,10.08
2023-02-23T08:11:32.923Z,11.53
2023-02-23T08:14:00.506Z,11.53
2023-02-23T08:16:29.819Z,10.90
2023-02-23T08:18:59.140Z,15.05
2023-02-23T08:21:28.889Z,10.50
2023-02-23T08:23:59.628Z,10.53
2023-02-23T08:26:27.377Z,10.82
2023-02-23T08:28:55.489Z,9.08
2023-02-23T08:31:24.698Z,9.05
2023-02-23T08:33:53.369Z,8.48
2023-02-23T08:36:21.132Z,8.53
2023-02-23T08:38:49.178Z,14.30
2023-02-23T08:41:17.713Z,11.40
2023-02-23T08:43:46.113Z,10.85
2023-02-23T08:46:13.982Z,11.30
2023-02-23T08:48:41.483Z,12.68
2023-02-23T08:51:09.353Z,10.38
2023-02-23T08:53:37.297Z,11.48
2023-02-23T08:56:07.551Z,11.00
2023-02-23T08:58:36.489Z,11.30
2023-02-23T09:01:05.855Z,12.47
2023-02-23T09:03:38.234Z,13.55
2023-02-23T09:06:12.557Z,12.35
2023-02-23T09:08:40.378Z,14.20
2023-02-23T09:11:08.099Z,13.32
2023-02-23T09:13:35.666Z,11.35
2023-02-23T09:16:03.883Z,10.98
2023-02-23T09:18:32.192Z,11.18
2023-02-23T09:21:07.959Z,10.23
2023-02-23T09:23:35.894Z,9.58
2023-02-23T09:28:37.633Z,12.07
2023-02-23T09:33:34.004Z,7.75
2023-02-23T09:36:08.714Z,7.12
2023-02-23T09:38:37.437Z,8.05
2023-02-23T09:41:13.187Z,7.35
2023-02-23T09:44:14.603Z,8.38
2023-02-23T09:47:07.088Z,11.63
2023-02-23T09:49:39.062Z,8.65
2023-02-23T09:54:42.833Z,10.60
2023-02-23T09:57:19.062Z,10.60
2023-02-23T09:59:48.038Z,11.53
2023-02-23T10:02:38.706Z,10.25
2023-02-23T10:09:26.828Z,10.60
2023-02-23T10:12:05.643Z,11.03
2023-02-23T10:15:03.541Z,8.68
2023-02-23T10:17:40.049Z,9.00
2023-02-23T10:20:52.879Z,7.37
2023-02-23T10:23:35.837Z,7.60
2023-02-23T10:26:06.939Z,7.05
2023-02-23T10:31:32.398Z,6.80
2023-02-23T10:34:06.607Z,6.72
2023-02-23T10:36:45.827Z,6.30
2023-02-23T10:39:14.087Z,6.62
2023-02-23T10:41:43.131Z,9.20
2023-02-23T10:44:19.114Z,9.70
2023-02-23T10:49:35.335Z,8.03
2023-02-23T10:52:04.135Z,5.17
2023-02-23T10:54:47.821Z,5.47
2023-02-23T10:57:31.967Z,4.40
2023-02-23T11:00:19.902Z,4.80
2023-02-23T11:05:37.055Z,6.58
2023-02-23T11:08:25.088Z,5.55
2023-02-23T11:11:28.709Z,4.50
2023-02-23T11:13:57.453Z,6.75
2023-02-23T11:16:29.990Z,3.80
2023-02-23T11:19:03.225Z,4.37
2023-02-23T11:21:38.169Z,3.40
2023-02-23T11:24:19.630Z,3.67
2023-02-23T11:26:51.427Z,3.47
2023-02-23T11:29:38.843Z,4.78
2023-02-23T11:32:23.106Z,4.20
2023-02-23T11:37:22.827Z,4.17
2023-02-23T11:40:04.972Z,7.83
2023-02-23T11:42:33.520Z,4.33
2023-02-23T11:45:21.140Z,4.00
2023-02-23T11:50:32.132Z,3.62
2023-02-23T11:53:31.016Z,5.80
2023-02-23T11:58:46.790Z,3.75
2023-02-23T12:01:18.260Z,5.65
2023-02-23T12:06:41.080Z,2.83
2023-02-23T12:09:29.322Z,4.92
2023-02-23T12:12:08.328Z,2.77
2023-02-23T12:15:02.208Z,3.55
2023-02-23T12:17:35.488Z,3.30
2023-02-23T12:23:05.972Z,3.15
2023-02-23T12:26:00.418Z,4.03
2023-02-23T12:31:10.431Z,4.53
2023-02-23T12:33:45.967Z,3.02
2023-02-23T12:36:25.950Z,3.30
2023-02-23T12:39:04.830Z,3.20
2023-02-23T12:41:37.354Z,3.00
2023-02-23T12:46:52.495Z,3.37
2023-02-23T12:52:05.749Z,3.05
2023-02-23T12:54:34.396Z,3.45
2023-02-23T12:59:57.719Z,5.42
2023-02-23T13:02:24.630Z,3.85
2023-02-23T13:05:14.793Z,3.75
2023-02-23T13:08:13.233Z,4.20
2023-02-23T13:10:48.291Z,6.90
2023-02-23T13:13:27.468Z,3.80
2023-02-23T13:16:18.885Z,4.78
2023-02-23T13:19:25.086Z,3.98
2023-02-23T13:22:13.726Z,3.12
2023-02-23T13:24:46.096Z,3.30
2023-02-23T13:27:27.492Z,3.00
2023-02-23T13:29:58.594Z,4.47
2023-02-23T13:32:33.811Z,3.20
2023-02-23T13:37:41.347Z,5.72
2023-02-23T13:40:49.284Z,6.15
2023-02-23T13:43:45.235Z,2.50
2023-02-23T13:46:25.157Z,2.67
2023-02-23T13:49:24.486Z,3.92
2023-02-23T13:51:59.416Z,4.62
2023-02-23T13:56:59.291Z,4.10
2023-02-23T13:59:45.054Z,3.17
2023-02-23T14:02:23.521Z,2.62
2023-02-23T14:04:51.793Z,3.30
2023-02-23T14:07:31.721Z,3.10
2023-02-23T14:10:18.069Z,3.87
2023-02-23T14:15:52.302Z,2.50
2023-02-23T14:18:25.585Z,3.00
2023-02-23T14:21:13.564Z,2.50
2023-02-23T14:26:36.356Z,3.92
2023-02-23T14:31:31.693Z,2.37
2023-02-23T14:36:32.823Z,4.83
2023-02-23T14:39:05.937Z,4.62
2023-02-23T14:41:42.302Z,6.78
2023-02-23T14:46:59.626Z,4.25
2023-02-23T14:49:48.845Z,5.92
2023-02-23T14:52:30.957Z,3.83
2023-02-23T14:55:23.075Z,4.72
2023-02-23T14:57:55.746Z,6.55
2023-02-23T15:00:32.518Z,3.98
2023-02-23T15:03:11.800Z,4.00
2023-02-23T15:05:56.285Z,6.87
2023-02-23T15:08:28.866Z,6.00
2023-02-23T15:11:13.032Z,6.00
2023-02-23T15:13:46.065Z,5.30
2023-02-23T15:18:52.868Z,9.13
2023-02-23T15:23:54.728Z,10.13
2023-02-23T15:26:36.333Z,13.78
2023-02-23T15:29:17.364Z,13.85
2023-02-23T15:34:13.522Z,11.20
2023-02-23T15:39:12.216Z,29.57
2023-02-23T15:41:42.575Z,61.48
2023-02-23T15:44:21.755Z,45.85
2023-02-23T15:46:59.704Z,44.85
2023-02-23T15:49:33.957Z,67.75
2023-02-23T15:54:39.169Z,102.32
2023-02-23T15:57:18.451Z,69.10
2023-02-23T15:59:48.339Z,49.27
2023-02-23T16:02:19.464Z,44.10
2023-02-23T16:07:21.780Z,50.43
2023-02-23T16:10:06.231Z,40.48
2023-02-23T16:12:39.494Z,38.92
2023-02-23T16:17:47.396Z,82.88
2023-02-23T16:20:28.659Z,86.30
2023-02-23T16:22:57.595Z,84.17
2023-02-23T16:28:07.669Z,51.98
2023-02-23T16:33:28.602Z,36.42
2023-02-23T16:41:31.067Z,34.83
2023-02-23T16:44:01.846Z,33.15
2023-02-23T16:47:07.622Z,31.93
2023-02-23T16:49:35.381Z,30.40
2023-02-23T16:54:29.878Z,71.10
2023-02-23T16:57:00.640Z,41.13
2023-02-23T16:59:30.362Z,66.85
2023-02-23T17:04:24.241Z,57.53
2023-02-23T17:09:21.093Z,63.50
2023-02-23T17:11:48.707Z,52.00
2023-02-23T17:14:27.387Z,54.38
2023-02-23T17:16:55.088Z,53.65
2023-02-23T17:19:24.684Z,48.28
2023-02-23T17:21:57.730Z,46.60
2023-02-23T17:24:26.003Z,44.40
2023-02-23T17:26:55.101Z,40.67
2023-02-23T17:31:51.793Z,81.53
2023-02-23T17:34:19.753Z,103.12
2023-02-23T17:36:47.590Z,114.82
2023-02-23T17:39:16.269Z,47.08
2023-02-23T17:41:43.985Z,41.30
2023-02-23T17:44:15.031Z,38.20
2023-02-23T17:46:45.901Z,35.60
2023-02-23T17:49:16.516Z,41.23
2023-02-23T17:51:44.234Z,41.35
2023-02-23T17:54:13.841Z,35.33
2023-02-23T17:56:43.046Z,33.45
2023-02-23T17:59:10.663Z,27.13
2023-02-23T18:01:40.145Z,21.48
2023-02-23T18:04:11.758Z,20.52
2023-02-23T18:06:39.643Z,23.50
2023-02-23T18:09:07.990Z,26.07
2023-02-23T18:14:15.885Z,56.90
2023-02-23T18:16:43.873Z,45.67
2023-02-23T18:19:32.319Z,45.33
2023-02-23T18:22:51.798Z,41.20
2023-02-23T18:25:26.384Z,35.90
2023-02-23T18:27:55.411Z,35.90
2023-02-23T18:30:24.776Z,34.18
2023-02-23T18:35:19.008Z,27.67
2023-02-23T18:37:46.670Z,28.98
2023-02-23T18:40:15.038Z,28.07
2023-02-23T18:42:42.875Z,27.85
2023-02-23T18:45:12.315Z,24.85
2023-02-23T18:47:42.480Z,25.92
2023-02-23T18:50:12.282Z,31.75
2023-02-23T18:55:08.456Z,36.58
2023-02-23T18:57:36.552Z,39.18
2023-02-23T19:00:08.390Z,40.78
2023-02-23T19:05:03.985Z,47.75
2023-02-23T19:10:02.440Z,26.75
2023-02-23T19:12:31.274Z,18.75
2023-02-23T19:14:59.026Z,16.75
2023-02-23T19:20:00.251Z,16.90
2023-02-23T19:24:55.309Z,16.07
2023-02-23T19:29:53.143Z,18.00
2023-02-23T19:32:21.366Z,18.75
2023-02-23T19:34:49.265Z,19.07
2023-02-23T19:37:17.431Z,19.55
2023-02-23T19:39:45.861Z,20.20
2023-02-23T19:44:44.702Z,19.70
2023-02-23T19:47:12.763Z,18.17
2023-02-23T19:49:42.612Z,20.10
2023-02-23T19:52:10.818Z,21.20
2023-02-23T19:54:38.957Z,22.02
2023-02-23T19:57:09.055Z,20.55
2023-02-23T19:59:37.638Z,23.20
2023-02-23T20:02:06.223Z,22.10
2023-02-23T20:04:37.204Z,21.25
2023-02-23T20:07:05.129Z,21.57
2023-02-23T20:09:32.970Z,22.00
2023-02-23T20:12:01.176Z,21.17
2023-02-23T20:14:28.932Z,24.20
2023-02-23T20:16:57.390Z,22.50
2023-02-23T20:19:28.655Z,22.10
2023-02-23T20:21:56.859Z,21.15
2023-02-23T20:24:24.716Z,21.42
2023-02-23T20:26:54.727Z,21.73
2023-02-23T20:29:23.037Z,23.45
2023-02-23T20:31:51.642Z,24.25
2023-02-23T20:34:25.006Z,24.57
2023-02-23T20:39:19.364Z,21.55
2023-02-23T20:41:49.383Z,18.45
2023-02-23T20:44:16.488Z,18.23
2023-02-23T20:46:44.703Z,22.87
2023-02-23T20:49:13.315Z,43.70
2023-02-23T20:54:11.359Z,46.75
2023-02-23T20:59:11.409Z,20.50
2023-02-23T21:04:05.630Z,19.92
2023-02-23T21:06:34.358Z,21.45
2023-02-23T21:09:04.290Z,20.50
2023-02-23T21:14:00.226Z,19.40
2023-02-23T21:18:58.217Z,18.15
2023-02-23T21:23:53.028Z,19.20
2023-02-23T21:26:21.793Z,21.12
2023-02-23T21:28:49.832Z,22.58
2023-02-23T21:31:17.810Z,19.05
2023-02-23T21:33:45.587Z,19.02
2023-02-23T21:36:13.536Z,19.60
2023-02-23T21:38:44.174Z,30.65
2023-02-23T21:41:13.919Z,30.77
2023-02-23T21:43:44.205Z,24.85
2023-02-23T21:48:43.513Z,23.10
2023-02-23T21:53:41.846Z,19.90
2023-02-23T21:56:22.491Z,17.23
2023-02-23T22:01:25.082Z,18.85
2023-02-23T22:06:28.500Z,28.12
2023-02-23T22:08:57.119Z,22.25
2023-02-23T22:11:27.273Z,22.20
2023-02-23T22:13:58.590Z,15.78
2023-02-23T22:19:00.520Z,14.78
2023-02-23T22:23:54.533Z,14.65
2023-02-23T22:26:22.462Z,14.07
2023-02-23T22:28:50.700Z,14.05
2023-02-23T22:31:18.818Z,14.03
2023-02-23T22:33:46.979Z,14.50
2023-02-23T22:36:16.762Z,14.65
2023-02-23T22:38:46.083Z,16.07
2023-02-23T22:41:16.191Z,14.60
2023-02-23T22:43:49.997Z,14.73
2023-02-23T22:46:17.963Z,16.67
2023-02-23T22:48:46.481Z,15.88
2023-02-23T22:53:40.298Z,15.90
2023-02-23T22:58:36.393Z,17.37
2023-02-23T23:03:36.299Z,16.85
2023-02-23T23:08:35.263Z,17.40
2023-02-23T23:11:10.672Z,16.50
2023-02-23T23:16:11.326Z,19.82
2023-02-23T23:21:13.924Z,23.05
2023-02-23T23:26:13.070Z,23.62
2023-02-23T23:28:46.987Z,22.95
2023-02-23T23:33:48.407Z,25.48
2023-02-23T23:38:42.905Z,28.98
2023-02-23T23:43:41.410Z,26.20
2023-02-23T23:48:36.211Z,27.00
2023-02-23T23:53:34.073Z,30.85
2023-02-23T23:56:10.403Z,32.30
2023-02-23T23:58:38.262Z,33.08
